Time;durP1;ratioP1;P1;durP2;ratioP2;P2;SDS_P1;SDS_P2;PMS_P1;PMS_P2;Temp;Humidity;BMP_temperature;BMP_pressure;BME280_temperature;BME280_humidity;BME280_pressure;Samples;Min_cycle;Max_cycle;Signal;HPM_P1;HPM_P2
2021/03/15 05:57:05;;;;;;;;;;;;;;;4.97;99.71;99435.72;1719552;81;20559;-35
2021/03/15 06:00:00;;;;;;;;;;;;;;;5.03;99.79;99431.89;1694394;83;20211;-36
2021/03/15 06:02:55;;;;;;;;;;;;;;;5.07;99.80;99433.23;1697759;83;20165;-35
2021/03/15 06:05:24;;;;;;;;;;;;;;;5.12;99.74;99422.91;1649627;85;20473;-35
2021/03/15 06:07:54;;;;;;;;;;;;;;;5.16;99.55;99430.25;1650527;85;20486;-36
2021/03/15 06:10:26;;;;;;;;;;;;;;;5.18;99.45;99426.84;1625785;85;20175;-37
2021/03/15 06:12:54;;;;;;;;;;;;;;;5.21;99.32;99426.84;1646372;85;20184;-40
2021/03/15 06:15:35;;;;;;;;;;;;;;;5.25;99.11;99427.75;1644733;85;20638;-41
2021/03/15 06:18:07;;;;;;;;;;;;;;;5.26;98.64;99431.64;1649031;85;20510;-40
2021/03/15 06:20:36;;;;;;;;;;;;;;;5.28;98.60;99429.95;1649240;85;20186;-41
2021/03/15 06:23:04;;;;;;;;;;;;;;;5.31;98.51;99435.58;1646946;85;20336;-41
2021/03/15 06:25:32;;;;;;;;;;;;;;;5.36;98.41;99440.38;1640493;86;20190;-40
2021/03/15 06:27:59;;;;;;;;;;;;;;;5.38;98.24;99438.64;1639849;86;20482;-35
2021/03/15 06:30:27;;;;;;;;;;;;;;;5.40;98.00;99443.88;1634779;86;20594;-40
2021/03/15 06:32:58;;;;;;;;;;;;;;;5.40;97.94;99440.84;1636763;86;21040;-40
2021/03/15 06:35:43;;;;;;;;;;;;;;;5.40;97.67;99442.14;1645709;84;20341;-40
2021/03/15 06:38:20;;;;;;;;;;;;;;;5.39;97.22;99446.00;1678321;83;20243;-41
2021/03/15 06:40:55;;;;;;;;;;;;;;;5.39;96.90;99448.59;1700561;83;20406;-35
2021/03/15 06:43:27;;;;;;;;;;;;;;;5.38;96.60;99441.67;1699098;83;20186;-34
2021/03/15 06:46:04;;;;;;;;;;;;;;;5.39;96.45;99447.30;1658686;83;20739;-35
2021/03/15 06:48:34;;;;;;;;;;;;;;;5.39;96.16;99445.56;1702398;83;20125;-38
2021/03/15 06:51:06;;;;;;;;;;;;;;;5.41;95.88;99447.77;1690078;83;20291;-40
2021/03/15 06:53:39;;;;;;;;;;;;;;;5.44;95.47;99445.61;1693875;83;20503;-40
2021/03/15 06:56:20;;;;;;;;;;;;;;;5.45;95.16;99445.64;1671046;83;20193;-34
2021/03/15 06:58:54;;;;;;;;;;;;;;;5.46;94.69;99444.78;1692648;83;20208;-42
2021/03/15 07:01:27;;;;;;;;;;;;;;;5.46;94.17;99438.29;1690298;83;20205;-40
2021/03/15 07:04:08;;;;;;;;;;;;;;;5.48;94.24;99437.00;1685940;83;20195;-41
2021/03/15 07:06:42;;;;;;;;;;;;;;;5.56;94.10;99445.25;1689280;83;20394;-35
2021/03/15 07:09:13;;;;;;;;;;;;;;;5.61;93.39;99429.72;1688466;83;20533;-36
2021/03/15 07:11:41;;;;;;;;;;;;;;;5.67;92.70;99432.78;1689041;83;20859;-39
2021/03/15 07:14:22;;;;;;;;;;;;;;;5.72;92.09;99431.95;1670753;84;20289;-36
2021/03/15 07:16:57;;;;;;;;;;;;;;;5.76;91.40;99445.40;1688294;83;20209;-39
2021/03/15 07:19:26;;;;;;;;;;;;;;;5.78;90.38;99438.48;1687957;83;20185;-34
2021/03/15 07:21:54;;;;;;;;;;;;;;;5.80;90.40;99447.59;1690320;83;20194;-35
2021/03/15 07:24:25;;;;;;;;;;;;;;;5.84;89.81;99449.33;1690454;83;20187;-41
2021/03/15 07:26:53;;;;;;;;;;;;;;;5.87;89.08;99437.24;1656889;85;20619;-40
2021/03/15 07:29:21;;;;;;;;;;;;;;;5.88;88.25;99442.00;1689096;83;20499;-41
2021/03/15 07:31:52;;;;;;;;;;;;;;;5.89;87.73;99443.73;1665602;84;20499;-35
2021/03/15 07:34:21;;;;;;;;;;;;;;;5.88;87.86;99449.36;1690561;83;20476;-41
2021/03/15 07:36:54;;;;;;;;;;;;;;;5.90;87.27;99438.97;1690019;83;20515;-35
2021/03/15 07:39:22;;;;;;;;;;;;;;;5.96;87.36;99442.06;1687460;84;20309;-35
2021/03/15 07:41:54;;;;;;;;;;;;;;;6.07;87.11;99439.09;1686701;83;20225;-41
2021/03/15 07:44:30;;;;;;;;;;;;;;;6.19;85.83;99444.77;1691611;83;20301;-40
2021/03/15 07:46:59;;;;;;;;;;;;;;;6.25;84.31;99445.66;1693663;83;20208;-39
2021/03/15 07:49:38;;;;;;;;;;;;;;;6.28;83.99;99440.92;1690816;84;20384;-36
2021/03/15 07:52:09;;;;;;;;;;;;;;;6.33;84.47;99452.20;1689913;83;20208;-41
2021/03/15 07:54:48;;;;;;;;;;;;;;;6.39;83.47;99437.93;1674394;84;20295;-41
2021/03/15 07:57:19;;;;;;;;;;;;;;;6.38;83.18;99443.56;1670570;84;20206;-36
2021/03/15 07:59:56;;;;;;;;;;;;;;;6.45;83.49;99439.25;1694185;84;20448;-40
2021/03/15 08:02:29;;;;;;;;;;;;;;;6.53;82.80;99441.42;1692460;84;20634;-41
2021/03/15 08:04:58;;;;;;;;;;;;;;;6.60;82.30;99441.87;1694102;84;20193;-40
2021/03/15 08:07:27;;;;;;;;;;;;;;;6.66;81.63;99441.02;1695495;83;20267;-41
2021/03/15 08:09:55;;;;;;;;;;;;;;;6.71;81.66;99438.43;1695239;83;20456;-41
2021/03/15 08:12:35;;;;;;;;;;;;;;;6.81;81.54;99433.69;1696142;83;20207;-41
2021/03/15 08:15:11;;;;;;;;;;;;;;;6.91;81.26;99429.81;1689951;84;20208;-40
2021/03/15 08:17:44;;;;;;;;;;;;;;;7.00;80.19;99423.73;1689239;83;20162;-39
2021/03/15 08:20:14;;;;;;;;;;;;;;;7.02;79.43;99427.66;1686568;83;20250;-41
2021/03/15 08:22:43;;;;;;;;;;;;;;;7.08;79.19;99425.92;1690352;83;20172;-35
2021/03/15 08:25:13;;;;;;;;;;;;;;;7.15;78.96;99418.55;1688803;83;20172;-41
2021/03/15 08:27:42;;;;;;;;;;;;;;;7.22;78.48;99430.25;1671277;83;20192;-40
2021/03/15 08:30:26;;;;;;;;;;;;;;;7.24;77.60;99421.56;1689064;83;20169;-41
2021/03/15 08:32:54;;;;;;;;;;;;;;;7.26;77.75;99421.59;1687617;83;20192;-41
2021/03/15 08:35:22;;;;;;;;;;;;;;;7.30;77.87;99421.56;1690358;83;20202;-40
2021/03/15 08:38:05;;;;;;;;;;;;;;;7.40;77.80;99419.39;1689362;83;20206;-35
2021/03/15 08:40:45;;;;;;;;;;;;;;;7.51;76.22;99415.48;1688921;83;20486;-36
2021/03/15 08:43:25;;;;;;;;;;;;;;;7.61;75.07;99425.45;1688822;84;20192;-35
2021/03/15 08:46:01;;;;;;;;;;;;;;;7.71;75.72;99420.22;1657747;85;20470;-35
2021/03/15 08:48:41;;;;;;;;;;;;;;;7.85;74.42;99413.66;1687972;84;20206;-40
2021/03/15 08:51:12;;;;;;;;;;;;;;;8.00;72.93;99415.33;1667917;84;20188;-35
2021/03/15 08:53:48;;;;;;;;;;;;;;;8.14;71.52;99423.12;1688151;83;20188;-40
2021/03/15 08:56:21;;;;;;;;;;;;;;;8.26;71.34;99417.85;1688120;83;20184;-40
2021/03/15 08:58:55;;;;;;;;;;;;;;;8.37;69.35;99426.96;1690149;83;20192;-41
2021/03/15 09:01:25;;;;;;;;;;;;;;;8.41;68.99;99425.64;1688403;83;20186;-41
2021/03/15 09:04:00;;;;;;;;;;;;;;;8.41;68.84;99423.03;1687599;83;20200;-41
2021/03/15 09:06:39;;;;;;;;;;;;;;;8.39;68.13;99424.77;1687414;83;20491;-36
2021/03/15 09:09:11;;;;;;;;;;;;;;;8.39;68.36;99424.77;1695417;83;20214;-34
2021/03/15 09:11:42;;;;;;;;;;;;;;;8.44;68.57;99424.30;1692006;83;20181;-35
2021/03/15 09:14:21;;;;;;;;;;;;;;;8.47;68.53;99420.39;1688179;83;20224;-35
2021/03/15 09:16:56;;;;;;;;;;;;;;;8.50;67.23;99421.66;1688238;84;20446;-35
2021/03/15 09:19:27;;;;;;;;;;;;;;;8.49;67.22;99414.72;1687587;83;21153;-35
2021/03/15 09:21:56;;;;;;;;;;;;;;;8.49;66.81;99412.55;1690887;83;20180;-35
2021/03/15 09:24:40;;;;;;;;;;;;;;;8.49;66.81;99412.12;1691651;83;20204;-40
2021/03/15 09:27:25;;;;;;;;;;;;;;;8.52;66.54;99406.90;1687609;83;20376;-35
2021/03/15 09:29:58;;;;;;;;;;;;;;;8.56;66.88;99410.77;1691018;83;20204;-40
2021/03/15 09:32:31;;;;;;;;;;;;;;;8.62;67.22;99412.91;1694362;83;20194;-40
2021/03/15 09:35:02;;;;;;;;;;;;;;;8.69;66.99;99409.38;1692451;83;20192;-35
2021/03/15 09:37:30;;;;;;;;;;;;;;;8.76;67.09;99408.48;1691634;83;20458;-35
2021/03/15 09:40:08;;;;;;;;;;;;;;;8.82;67.00;99404.97;1695289;83;21028;-40
2021/03/15 09:42:39;;;;;;;;;;;;;;;8.90;67.06;99402.30;1698059;84;20484;-36
2021/03/15 09:45:08;;;;;;;;;;;;;;;9.01;67.12;99401.34;1687541;83;20188;-34
2021/03/15 09:47:36;;;;;;;;;;;;;;;9.15;67.42;99397.73;1692765;83;20221;-40
2021/03/15 09:50:18;;;;;;;;;;;;;;;9.27;65.96;99399.80;1693652;83;20143;-34
2021/03/15 09:52:53;;;;;;;;;;;;;;;9.37;65.48;99386.67;1690810;83;20676;-40
2021/03/15 09:55:27;;;;;;;;;;;;;;;9.49;64.74;99387.41;1692189;83;20228;-34
2021/03/15 09:58:05;;;;;;;;;;;;;;;9.69;64.62;99387.67;1689932;83;20204;-37
2021/03/15 10:00:41;;;;;;;;;;;;;;;9.99;64.49;99377.30;1686830;83;20239;-35
2021/03/15 10:03:23;;;;;;;;;;;;;;;10.26;61.82;99387.45;1627938;84;20327;-38
2021/03/15 10:06:16;;;;;;;;;;;;;;;10.37;59.24;99382.05;1668463;84;20285;-35
2021/03/15 10:09:05;;;;;;;;;;;;;;;10.28;59.72;99376.97;1684762;83;20436;-40
2021/03/15 10:11:53;;;;;;;;;;;;;;;10.17;60.26;99375.77;1687065;83;20689;-42
2021/03/15 10:14:39;;;;;;;;;;;;;;;10.11;61.64;99373.23;1689697;83;20666;-41
2021/03/15 10:17:19;;;;;;;;;;;;;;;10.09;60.67;99366.72;1689481;83;20634;-40
2021/03/15 10:19:49;;;;;;;;;;;;;;;10.07;60.63;99367.16;1687903;83;20242;-35
2021/03/15 10:22:18;;;;;;;;;;;;;;;10.07;61.41;99364.55;1657870;84;20156;-34
2021/03/15 10:24:48;;;;;;;;;;;;;;;10.09;61.06;99353.66;1686031;83;20207;-35
2021/03/15 10:27:24;;;;;;;;;;;;;;;10.11;61.10;99358.85;1691007;83;20176;-35
2021/03/15 10:30:09;;;;;;;;;;;;;;;10.13;61.45;99357.08;1688419;83;20168;-41
2021/03/15 10:32:41;;;;;;;;;;;;;;;10.17;61.15;99352.69;1690397;83;20531;-36
2021/03/15 10:35:18;;;;;;;;;;;;;;;10.19;60.72;99360.91;1690029;83;20195;-40
2021/03/15 10:38:04;;;;;;;;;;;;;;;10.20;60.33;99360.02;1596689;88;20296;-35
2021/03/15 10:40:42;;;;;;;;;;;;;;;10.27;60.65;99361.73;1798580;78;20467;-33
2021/03/15 10:43:22;;;;;;;;;;;;;;;10.23;60.15;99357.41;1777828;79;20170;-36
2021/03/15 10:45:52;;;;;;;;;;;;;;;10.21;61.08;99354.38;1779834;79;20501;-35
2021/03/15 10:48:23;;;;;;;;;;;;;;;10.19;60.36;99354.38;1784687;79;20288;-43
2021/03/15 10:50:59;;;;;;;;;;;;;;;10.19;60.16;99345.67;1774657;80;20202;-42
2021/03/15 10:53:50;;;;;;;;;;;;;;;10.17;59.64;99339.17;1736374;80;20177;-42
2021/03/15 10:56:22;;;;;;;;;;;;;;;10.17;59.01;99340.92;1777633;79;20217;-37
2021/03/15 10:58:56;;;;;;;;;;;;;;;10.16;58.58;99341.81;1776430;79;20435;-36
2021/03/15 11:01:28;;;;;;;;;;;;;;;10.15;59.01;99338.34;1780247;79;20203;-37
2021/03/15 11:04:11;;;;;;;;;;;;;;;10.17;58.99;99337.00;1679315;84;20209;-37
2021/03/15 11:06:51;;;;;;;;;;;;;;;10.26;59.29;99342.12;1797027;78;20190;-41
2021/03/15 11:21:15;;;;;;;;;;;;;;;10.60;59.18;99315.03;1767263;79;20191;-43
2021/03/15 11:25:15;;;;;;;;;;;;;;;10.72;57.29;99313.97;1770569;79;20597;-36
2021/03/15 11:28:58;;;;;;;;;;;;;;;10.77;57.16;99323.92;1769905;79;20264;-41
2021/03/15 11:32:53;;;;;;;;;;;;;;;10.90;55.77;99314.56;1755005;79;20185;-36
2021/03/15 11:36:00;;;;;;;;;;;;;;;10.93;54.65;99314.49;1770713;79;20183;-37
2021/03/15 11:38:30;;;;;;;;;;;;;;;10.92;54.33;99304.06;1767875;79;20173;-42
2021/03/15 11:41:00;;;;;;;;;;;;;;;10.89;54.06;99298.41;1773177;79;20158;-41
2021/03/15 11:43:30;;;;;;;;;;;;;;;10.88;54.57;99304.55;1768673;79;20278;-36
2021/03/15 11:46:00;;;;;;;;;;;;;;;10.93;55.40;99294.86;1770889;79;20396;-36
2021/03/15 11:48:30;;;;;;;;;;;;;;;11.01;55.12;99289.48;1771238;79;20233;-40
2021/03/15 11:51:00;;;;;;;;;;;;;;;11.13;55.43;99291.02;1724925;79;20524;-33
2021/03/15 11:53:32;;;;;;;;;;;;;;;11.24;54.79;99292.14;1765266;79;20174;-39
2021/03/15 11:56:01;;;;;;;;;;;;;;;11.29;54.32;99283.30;1759883;79;20179;-39
2021/03/15 11:58:35;;;;;;;;;;;;;;;11.35;54.81;99276.64;1749784;79;20524;-35
2021/03/15 12:01:10;;;;;;;;;;;;;;;11.47;54.62;99275.54;1738593;80;20181;-40
2021/03/15 12:03:40;;;;;;;;;;;;;;;11.65;55.41;99272.99;1766853;79;20475;-40
2021/03/15 12:06:14;;;;;;;;;;;;;;;11.88;56.03;99267.30;1759905;80;20201;-40
2021/03/15 12:08:51;;;;;;;;;;;;;;;12.15;56.43;99267.16;1755571;80;20183;-35
2021/03/15 12:11:20;;;;;;;;;;;;;;;12.34;55.84;99264.97;1765845;80;20482;-35
2021/03/15 12:13:52;;;;;;;;;;;;;;;12.44;55.51;99258.16;1716632;81;20204;-39
2021/03/15 12:16:28;;;;;;;;;;;;;;;12.51;55.52;99260.18;1680877;82;20408;-44
2021/03/15 12:18:56;;;;;;;;;;;;;;;12.54;56.16;99256.19;1692016;83;20577;-40
2021/03/15 12:21:25;;;;;;;;;;;;;;;12.61;56.05;99253.81;1729262;81;20276;-39
2021/03/15 12:23:54;;;;;;;;;;;;;;;12.77;56.38;99239.42;1695030;82;20182;-43
2021/03/15 12:26:23;;;;;;;;;;;;;;;13.02;56.47;99247.50;1693236;83;20434;-40
2021/03/15 12:28:52;;;;;;;;;;;;;;;13.27;56.32;99241.16;1692878;83;20184;-40
2021/03/15 12:31:21;;;;;;;;;;;;;;;13.53;55.77;99239.59;1693364;83;20256;-35
2021/03/15 12:33:50;;;;;;;;;;;;;;;13.76;54.87;99233.66;1671694;84;20281;-35
2021/03/15 12:36:20;;;;;;;;;;;;;;;13.98;54.51;99237.38;1723634;81;20523;-34
2021/03/15 12:38:51;;;;;;;;;;;;;;;14.21;54.11;99227.91;1730598;81;20207;-38
2021/03/15 12:41:21;;;;;;;;;;;;;;;14.49;52.98;99221.31;1725320;81;20200;-36
2021/03/15 12:43:48;;;;;;;;;;;;;;;14.69;52.95;99214.95;1727677;81;20197;-35
2021/03/15 12:46:18;;;;;;;;;;;;;;;14.88;51.18;99221.29;1725812;81;20196;-35
2021/03/15 12:48:49;;;;;;;;;;;;;;;14.95;50.26;99225.03;1723476;81;20194;-34
2021/03/15 12:51:17;;;;;;;;;;;;;;;14.92;49.09;99219.88;1703348;83;20534;-41
2021/03/15 12:53:45;;;;;;;;;;;;;;;14.89;48.49;99224.78;1680717;83;20259;-39
2021/03/15 12:56:14;;;;;;;;;;;;;;;14.81;48.39;99218.47;1702616;83;20483;-42
2021/03/15 12:58:44;;;;;;;;;;;;;;;14.73;48.45;99216.57;1702399;83;20210;-39
2021/03/15 13:01:17;;;;;;;;;;;;;;;14.66;48.87;99222.92;1703802;83;20164;-40
2021/03/15 13:03:47;;;;;;;;;;;;;;;14.58;48.94;99210.03;1699235;83;20452;-39
2021/03/15 13:06:16;;;;;;;;;;;;;;;14.67;49.28;99205.36;1681305;83;20156;-34
2021/03/15 13:08:58;;;;;;;;;;;;;;;14.71;49.29;99206.53;1664446;85;20485;-35
2021/03/15 13:11:31;;;;;;;;;;;;;;;14.71;50.48;99206.98;1665335;85;20208;-35
2021/03/15 13:14:10;;;;;;;;;;;;;;;14.73;50.64;99202.09;1804238;77;20153;-36
2021/03/15 13:16:40;;;;;;;;;;;;;;;14.61;50.89;99201.16;1767393;80;20223;-37
2021/03/15 13:19:10;;;;;;;;;;;;;;;14.64;51.06;99201.07;1727134;80;20157;-36
2021/03/15 13:21:37;;;;;;;;;;;;;;;14.76;50.89;99199.34;1760615;80;20172;-40
2021/03/15 13:24:06;;;;;;;;;;;;;;;14.77;51.00;99197.10;1723537;80;20166;-36
2021/03/15 13:26:34;;;;;;;;;;;;;;;14.64;50.75;99197.12;1758599;80;20665;-35
2021/03/15 13:29:03;;;;;;;;;;;;;;;14.47;50.83;99201.63;1765211;80;20155;-40
2021/03/15 13:31:32;;;;;;;;;;;;;;;14.36;52.01;99199.31;1733439;81;20463;-36
2021/03/15 13:34:00;;;;;;;;;;;;;;;14.29;51.29;99195.17;1678908;84;20206;-40
2021/03/15 13:36:28;;;;;;;;;;;;;;;14.17;50.57;99203.46;1676041;83;20154;-40
2021/03/15 13:39:00;;;;;;;;;;;;;;;14.03;50.66;99197.34;1702192;83;20254;-36
2021/03/15 13:41:29;;;;;;;;;;;;;;;13.99;50.76;99194.38;1709426;83;20180;-35
2021/03/15 13:43:58;;;;;;;;;;;;;;;14.04;51.33;99192.48;1727807;81;20163;-40
2021/03/15 13:46:27;;;;;;;;;;;;;;;14.13;51.25;99186.50;1719501;83;20201;-41
2021/03/15 13:48:57;;;;;;;;;;;;;;;14.25;50.84;99192.23;1722553;83;20526;-35
2021/03/15 13:51:26;;;;;;;;;;;;;;;14.22;49.96;99197.60;1728778;81;20699;-35
2021/03/15 13:53:56;;;;;;;;;;;;;;;14.01;50.58;99194.33;1726347;81;20172;-42
2021/03/15 13:56:24;;;;;;;;;;;;;;;13.83;51.59;99195.30;1710279;82;20199;-35
2021/03/15 13:58:54;;;;;;;;;;;;;;;13.70;52.06;99187.84;1723595;82;20199;-37
